sensor_id;sensor_type;location;lat;lon;timestamp;P1;durP1;ratioP1;P2;durP2;ratioP2
14358;SDS011;7263;49.418;11.064;2023-06-19T00:01:19;8.77;;;7.32;;
14358;SDS011;7263;49.418;11.064;2023-06-19T00:04:08;7.43;;;6.78;;
14358;SDS011;7263;49.418;11.064;2023-06-19T00:06:35;7.63;;;7.00;;
14358;SDS011;7263;49.418;11.064;2023-06-19T00:09:06;8.90;;;7.85;;
14358;SDS011;7263;49.418;11.064;2023-06-19T00:11:33;8.02;;;7.30;;
14358;SDS011;7263;49.418;11.064;2023-06-19T00:13:59;7.97;;;7.18;;
14358;SDS011;7263;49.418;11.064;2023-06-19T00:16:29;7.78;;;6.97;;
14358;SDS011;7263;49.418;11.064;2023-06-19T00:18:57;7.55;;;6.85;;
14358;SDS011;7263;49.418;11.064;2023-06-19T00:21:29;7.80;;;7.10;;
14358;SDS011;7263;49.418;11.064;2023-06-19T00:24:07;7.80;;;7.00;;
14358;SDS011;7263;49.418;11.064;2023-06-19T00:26:35;8.07;;;7.28;;
14358;SDS011;7263;49.418;11.064;2023-06-19T00:29:02;7.35;;;6.70;;
14358;SDS011;7263;49.418;11.064;2023-06-19T00:31:32;7.35;;;6.65;;
14358;SDS011;7263;49.418;11.064;2023-06-19T00:34:02;7.32;;;6.72;;
14358;SDS011;7263;49.418;11.064;2023-06-19T00:36:30;6.53;;;6.00;;
14358;SDS011;7263;49.418;11.064;2023-06-19T00:39:05;7.88;;;6.90;;
14358;SDS011;7263;49.418;11.064;2023-06-19T00:41:32;15.13;;;13.73;;
14358;SDS011;7263;49.418;11.064;2023-06-19T00:44:01;13.60;;;12.20;;
14358;SDS011;7263;49.418;11.064;2023-06-19T00:46:30;15.20;;;13.70;;
14358;SDS011;7263;49.418;11.064;2023-06-19T00:48:57;8.70;;;7.68;;
14358;SDS011;7263;49.418;11.064;2023-06-19T00:51:34;6.50;;;5.88;;
14358;SDS011;7263;49.418;11.064;2023-06-19T00:54:03;9.05;;;8.15;;
14358;SDS011;7263;49.418;11.064;2023-06-19T00:56:31;7.35;;;6.63;;
14358;SDS011;7263;49.418;11.064;2023-06-19T00:58:59;7.25;;;6.57;;
14358;SDS011;7263;49.418;11.064;2023-06-19T01:01:32;6.90;;;6.30;;
14358;SDS011;7263;49.418;11.064;2023-06-19T01:04:03;7.03;;;6.28;;
14358;SDS011;7263;49.418;11.064;2023-06-19T01:06:31;6.35;;;5.82;;
14358;SDS011;7263;49.418;11.064;2023-06-19T01:09:07;6.95;;;6.25;;
14358;SDS011;7263;49.418;11.064;2023-06-19T01:11:38;6.55;;;5.95;;
14358;SDS011;7263;49.418;11.064;2023-06-19T01:14:14;6.50;;;5.90;;
14358;SDS011;7263;49.418;11.064;2023-06-19T01:16:44;6.95;;;6.35;;
14358;SDS011;7263;49.418;11.064;2023-06-19T01:19:11;7.97;;;7.28;;
14358;SDS011;7263;49.418;11.064;2023-06-19T01:21:46;11.90;;;10.70;;
14358;SDS011;7263;49.418;11.064;2023-06-19T01:24:14;7.82;;;6.90;;
14358;SDS011;7263;49.418;11.064;2023-06-19T01:26:50;7.82;;;7.10;;
14358;SDS011;7263;49.418;11.064;2023-06-19T01:29:17;6.90;;;6.22;;
14358;SDS011;7263;49.418;11.064;2023-06-19T01:31:45;9.80;;;8.80;;
14358;SDS011;7263;49.418;11.064;2023-06-19T01:34:17;7.57;;;6.88;;
14358;SDS011;7263;49.418;11.064;2023-06-19T01:36:48;7.60;;;6.90;;
14358;SDS011;7263;49.418;11.064;2023-06-19T01:39:17;8.40;;;7.60;;
14358;SDS011;7263;49.418;11.064;2023-06-19T01:41:45;7.50;;;6.90;;
14358;SDS011;7263;49.418;11.064;2023-06-19T01:44:16;7.15;;;6.55;;
14358;SDS011;7263;49.418;11.064;2023-06-19T01:46:44;8.27;;;6.30;;
14358;SDS011;7263;49.418;11.064;2023-06-19T01:49:13;7.47;;;6.85;;
14358;SDS011;7263;49.418;11.064;2023-06-19T01:51:43;9.65;;;8.75;;
14358;SDS011;7263;49.418;11.064;2023-06-19T01:54:11;7.38;;;6.68;;
14358;SDS011;7263;49.418;11.064;2023-06-19T01:56:47;7.35;;;6.70;;
14358;SDS011;7263;49.418;11.064;2023-06-19T01:59:23;12.13;;;10.93;;
14358;SDS011;7263;49.418;11.064;2023-06-19T02:01:50;8.43;;;7.35;;
14358;SDS011;7263;49.418;11.064;2023-06-19T02:04:17;7.60;;;6.90;;
14358;SDS011;7263;49.418;11.064;2023-06-19T02:06:47;6.97;;;6.35;;
14358;SDS011;7263;49.418;11.064;2023-06-19T02:09:24;7.45;;;6.85;;
14358;SDS011;7263;49.418;11.064;2023-06-19T02:11:52;8.02;;;7.22;;
14358;SDS011;7263;49.418;11.064;2023-06-19T02:14:23;6.85;;;6.25;;
14358;SDS011;7263;49.418;11.064;2023-06-19T02:16:53;8.18;;;7.38;;
14358;SDS011;7263;49.418;11.064;2023-06-19T02:19:20;11.73;;;10.60;;
14358;SDS011;7263;49.418;11.064;2023-06-19T02:21:58;7.47;;;6.78;;
14358;SDS011;7263;49.418;11.064;2023-06-19T02:24:27;6.93;;;6.30;;
14358;SDS011;7263;49.418;11.064;2023-06-19T02:27:01;6.78;;;6.15;;
14358;SDS011;7263;49.418;11.064;2023-06-19T02:29:27;6.90;;;6.28;;
14358;SDS011;7263;49.418;11.064;2023-06-19T02:31:55;7.70;;;6.90;;
14358;SDS011;7263;49.418;11.064;2023-06-19T02:34:22;7.20;;;6.60;;
14358;SDS011;7263;49.418;11.064;2023-06-19T02:36:51;8.52;;;6.35;;
14358;SDS011;7263;49.418;11.064;2023-06-19T02:39:21;6.65;;;6.05;;
14358;SDS011;7263;49.418;11.064;2023-06-19T02:41:48;7.43;;;6.80;;
14358;SDS011;7263;49.418;11.064;2023-06-19T02:44:18;6.90;;;6.30;;
14358;SDS011;7263;49.418;11.064;2023-06-19T02:46:45;7.25;;;6.65;;
14358;SDS011;7263;49.418;11.064;2023-06-19T02:49:15;7.20;;;6.50;;
14358;SDS011;7263;49.418;11.064;2023-06-19T02:51:42;7.38;;;6.70;;
14358;SDS011;7263;49.418;11.064;2023-06-19T02:54:12;7.22;;;6.53;;
14358;SDS011;7263;49.418;11.064;2023-06-19T02:56:41;7.63;;;6.93;;
14358;SDS011;7263;49.418;11.064;2023-06-19T02:59:08;7.68;;;7.07;;
14358;SDS011;7263;49.418;11.064;2023-06-19T03:01:36;8.40;;;6.47;;
14358;SDS011;7263;49.418;11.064;2023-06-19T03:04:03;7.15;;;6.45;;
14358;SDS011;7263;49.418;11.064;2023-06-19T03:06:32;6.97;;;6.30;;
14358;SDS011;7263;49.418;11.064;2023-06-19T03:09:04;6.93;;;6.32;;
14358;SDS011;7263;49.418;11.064;2023-06-19T03:11:37;6.68;;;6.07;;
14358;SDS011;7263;49.418;11.064;2023-06-19T03:14:09;6.95;;;6.32;;
14358;SDS011;7263;49.418;11.064;2023-06-19T03:16:39;7.07;;;6.47;;
14358;SDS011;7263;49.418;11.064;2023-06-19T03:19:12;7.00;;;6.30;;
14358;SDS011;7263;49.418;11.064;2023-06-19T03:21:40;9.35;;;6.05;;
14358;SDS011;7263;49.418;11.064;2023-06-19T03:24:07;6.80;;;6.20;;
14358;SDS011;7263;49.418;11.064;2023-06-19T03:26:34;7.85;;;6.30;;
14358;SDS011;7263;49.418;11.064;2023-06-19T03:29:01;7.35;;;6.00;;
14358;SDS011;7263;49.418;11.064;2023-06-19T03:31:30;7.13;;;6.43;;
14358;SDS011;7263;49.418;11.064;2023-06-19T03:33:58;7.25;;;6.55;;
14358;SDS011;7263;49.418;11.064;2023-06-19T03:36:31;7.28;;;6.50;;
14358;SDS011;7263;49.418;11.064;2023-06-19T03:39:00;6.57;;;5.90;;
14358;SDS011;7263;49.418;11.064;2023-06-19T03:41:30;7.00;;;5.90;;
14358;SDS011;7263;49.418;11.064;2023-06-19T03:44:00;10.40;;;6.40;;
14358;SDS011;7263;49.418;11.064;2023-06-19T03:46:41;6.38;;;5.85;;
14358;SDS011;7263;49.418;11.064;2023-06-19T03:49:12;6.88;;;6.28;;
14358;SDS011;7263;49.418;11.064;2023-06-19T03:51:39;7.70;;;6.22;;
14358;SDS011;7263;49.418;11.064;2023-06-19T03:54:05;8.23;;;7.13;;
14358;SDS011;7263;49.418;11.064;2023-06-19T03:56:32;7.22;;;6.63;;
14358;SDS011;7263;49.418;11.064;2023-06-19T03:58:59;7.65;;;6.90;;
14358;SDS011;7263;49.418;11.064;2023-06-19T04:01:26;7.00;;;6.30;;
14358;SDS011;7263;49.418;11.064;2023-06-19T04:03:53;7.32;;;6.63;;
14358;SDS011;7263;49.418;11.064;2023-06-19T04:06:21;7.13;;;6.43;;
14358;SDS011;7263;49.418;11.064;2023-06-19T04:08:48;7.13;;;6.40;;
14358;SDS011;7263;49.418;11.064;2023-06-19T04:11:14;8.13;;;6.50;;
14358;SDS011;7263;49.418;11.064;2023-06-19T04:13:41;7.78;;;6.60;;
14358;SDS011;7263;49.418;11.064;2023-06-19T04:16:08;6.95;;;6.30;;
14358;SDS011;7263;49.418;11.064;2023-06-19T04:18:37;7.97;;;6.50;;
14358;SDS011;7263;49.418;11.064;2023-06-19T04:21:04;10.07;;;7.20;;
14358;SDS011;7263;49.418;11.064;2023-06-19T04:23:32;7.40;;;6.70;;
14358;SDS011;7263;49.418;11.064;2023-06-19T04:26:04;9.52;;;7.53;;
14358;SDS011;7263;49.418;11.064;2023-06-19T04:28:31;10.35;;;7.00;;
14358;SDS011;7263;49.418;11.064;2023-06-19T04:30:58;8.60;;;7.13;;
14358;SDS011;7263;49.418;11.064;2023-06-19T04:33:26;8.25;;;7.32;;
14358;SDS011;7263;49.418;11.064;2023-06-19T04:35:55;11.45;;;6.95;;
14358;SDS011;7263;49.418;11.064;2023-06-19T04:38:25;9.55;;;7.20;;
14358;SDS011;7263;49.418;11.064;2023-06-19T04:40:53;6.97;;;6.38;;
14358;SDS011;7263;49.418;11.064;2023-06-19T04:43:25;8.18;;;6.90;;
14358;SDS011;7263;49.418;11.064;2023-06-19T04:45:52;8.68;;;7.07;;
14358;SDS011;7263;49.418;11.064;2023-06-19T04:48:22;8.55;;;6.60;;
14358;SDS011;7263;49.418;11.064;2023-06-19T04:50:51;8.20;;;7.10;;
14358;SDS011;7263;49.418;11.064;2023-06-19T04:53:21;7.85;;;7.15;;
14358;SDS011;7263;49.418;11.064;2023-06-19T04:55:48;7.93;;;7.13;;
14358;SDS011;7263;49.418;11.064;2023-06-19T04:58:24;11.52;;;6.75;;
14358;SDS011;7263;49.418;11.064;2023-06-19T05:00:54;9.27;;;6.60;;
14358;SDS011;7263;49.418;11.064;2023-06-19T05:03:23;9.07;;;7.28;;
14358;SDS011;7263;49.418;11.064;2023-06-19T05:05:50;10.23;;;7.78;;
14358;SDS011;7263;49.418;11.064;2023-06-19T05:08:17;9.07;;;7.53;;
14358;SDS011;7263;49.418;11.064;2023-06-19T05:10:43;7.75;;;6.95;;
14358;SDS011;7263;49.418;11.064;2023-06-19T05:13:13;7.28;;;6.53;;
14358;SDS011;7263;49.418;11.064;2023-06-19T05:15:40;7.65;;;6.82;;
14358;SDS011;7263;49.418;11.064;2023-06-19T05:18:07;7.80;;;7.10;;
14358;SDS011;7263;49.418;11.064;2023-06-19T05:20:34;8.70;;;7.18;;
14358;SDS011;7263;49.418;11.064;2023-06-19T05:23:01;8.35;;;7.13;;
14358;SDS011;7263;49.418;11.064;2023-06-19T05:25:30;11.50;;;7.50;;
14358;SDS011;7263;49.418;11.064;2023-06-19T05:28:00;13.52;;;7.45;;
14358;SDS011;7263;49.418;11.064;2023-06-19T05:30:28;13.05;;;7.63;;
14358;SDS011;7263;49.418;11.064;2023-06-19T05:32:57;12.07;;;7.07;;
14358;SDS011;7263;49.418;11.064;2023-06-19T05:35:23;13.52;;;7.50;;
14358;SDS011;7263;49.418;11.064;2023-06-19T05:37:50;10.85;;;7.20;;
14358;SDS011;7263;49.418;11.064;2023-06-19T05:40:17;12.70;;;7.53;;
14358;SDS011;7263;49.418;11.064;2023-06-19T05:42:44;11.02;;;6.88;;
14358;SDS011;7263;49.418;11.064;2023-06-19T05:45:13;10.30;;;7.20;;
14358;SDS011;7263;49.418;11.064;2023-06-19T05:47:41;8.88;;;6.88;;
14358;SDS011;7263;49.418;11.064;2023-06-19T05:50:11;13.50;;;7.28;;
14358;SDS011;7263;49.418;11.064;2023-06-19T05:52:37;11.82;;;6.72;;
14358;SDS011;7263;49.418;11.064;2023-06-19T05:55:08;9.25;;;7.57;;
14358;SDS011;7263;49.418;11.064;2023-06-19T05:57:38;9.90;;;7.35;;
14358;SDS011;7263;49.418;11.064;2023-06-19T06:00:14;7.47;;;6.57;;
14358;SDS011;7263;49.418;11.064;2023-06-19T06:02:48;8.65;;;6.63;;
14358;SDS011;7263;49.418;11.064;2023-06-19T06:05:16;7.40;;;6.10;;
14358;SDS011;7263;49.418;11.064;2023-06-19T06:07:44;6.90;;;6.20;;
14358;SDS011;7263;49.418;11.064;2023-06-19T06:10:10;6.43;;;5.82;;
14358;SDS011;7263;49.418;11.064;2023-06-19T06:12:37;8.82;;;6.75;;
14358;SDS011;7263;49.418;11.064;2023-06-19T06:15:05;7.18;;;6.35;;
14358;SDS011;7263;49.418;11.064;2023-06-19T06:17:32;6.95;;;6.32;;
14358;SDS011;7263;49.418;11.064;2023-06-19T06:20:00;7.68;;;6.70;;
14358;SDS011;7263;49.418;11.064;2023-06-19T06:22:31;6.40;;;5.88;;
14358;SDS011;7263;49.418;11.064;2023-06-19T06:24:58;6.95;;;6.35;;
14358;SDS011;7263;49.418;11.064;2023-06-19T06:27:28;6.70;;;6.07;;
14358;SDS011;7263;49.418;11.064;2023-06-19T06:29:54;7.38;;;6.68;;
14358;SDS011;7263;49.418;11.064;2023-06-19T06:32:21;7.53;;;6.82;;
14358;SDS011;7263;49.418;11.064;2023-06-19T06:34:52;14.20;;;6.10;;
14358;SDS011;7263;49.418;11.064;2023-06-19T06:37:23;6.75;;;5.80;;
14358;SDS011;7263;49.418;11.064;2023-06-19T06:39:50;10.27;;;5.82;;
14358;SDS011;7263;49.418;11.064;2023-06-19T06:42:17;7.00;;;6.32;;
14358;SDS011;7263;49.418;11.064;2023-06-19T06:44:46;9.98;;;6.03;;
14358;SDS011;7263;49.418;11.064;2023-06-19T06:47:13;6.30;;;5.50;;
14358;SDS011;7263;49.418;11.064;2023-06-19T06:49:40;5.80;;;5.30;;
14358;SDS011;7263;49.418;11.064;2023-06-19T06:52:07;5.55;;;5.05;;
14358;SDS011;7263;49.418;11.064;2023-06-19T06:54:41;7.03;;;4.80;;
14358;SDS011;7263;49.418;11.064;2023-06-19T06:57:08;5.97;;;5.38;;
14358;SDS011;7263;49.418;11.064;2023-06-19T06:59:37;5.78;;;5.30;;
14358;SDS011;7263;49.418;11.064;2023-06-19T07:02:03;5.97;;;5.38;;
14358;SDS011;7263;49.418;11.064;2023-06-19T07:04:30;4.90;;;4.50;;
14358;SDS011;7263;49.418;11.064;2023-06-19T07:07:00;5.50;;;4.60;;
14358;SDS011;7263;49.418;11.064;2023-06-19T07:09:28;4.13;;;3.83;;
14358;SDS011;7263;49.418;11.064;2023-06-19T07:11:56;5.10;;;4.60;;
14358;SDS011;7263;49.418;11.064;2023-06-19T07:14:27;4.22;;;3.90;;
14358;SDS011;7263;49.418;11.064;2023-06-19T07:16:53;4.63;;;3.78;;
14358;SDS011;7263;49.418;11.064;2023-06-19T07:19:26;7.22;;;3.90;;
14358;SDS011;7263;49.418;11.064;2023-06-19T07:21:52;4.50;;;3.65;;
14358;SDS011;7263;49.418;11.064;2023-06-19T07:24:22;4.35;;;3.95;;
14358;SDS011;7263;49.418;11.064;2023-06-19T07:26:51;8.73;;;3.55;;
14358;SDS011;7263;49.418;11.064;2023-06-19T07:29:22;5.75;;;3.45;;
14358;SDS011;7263;49.418;11.064;2023-06-19T07:31:54;3.80;;;3.10;;
14358;SDS011;7263;49.418;11.064;2023-06-19T07:34:31;3.70;;;3.40;;
14358;SDS011;7263;49.418;11.064;2023-06-19T07:37:01;7.97;;;3.13;;
14358;SDS011;7263;49.418;11.064;2023-06-19T07:39:30;3.30;;;3.00;;
14358;SDS011;7263;49.418;11.064;2023-06-19T07:42:09;3.58;;;2.92;;
14358;SDS011;7263;49.418;11.064;2023-06-19T07:44:37;4.05;;;3.00;;
14358;SDS011;7263;49.418;11.064;2023-06-19T07:47:07;3.13;;;2.88;;
14358;SDS011;7263;49.418;11.064;2023-06-19T07:49:34;4.85;;;2.88;;
14358;SDS011;7263;49.418;11.064;2023-06-19T07:52:03;2.55;;;2.35;;
14358;SDS011;7263;49.418;11.064;2023-06-19T07:54:34;3.28;;;2.97;;
14358;SDS011;7263;49.418;11.064;2023-06-19T07:57:01;4.05;;;2.92;;
14358;SDS011;7263;49.418;11.064;2023-06-19T07:59:28;2.80;;;2.60;;
14358;SDS011;7263;49.418;11.064;2023-06-19T08:01:56;3.45;;;2.70;;
14358;SDS011;7263;49.418;11.064;2023-06-19T08:04:23;3.47;;;2.83;;
14358;SDS011;7263;49.418;11.064;2023-06-19T08:06:49;3.67;;;2.70;;
14358;SDS011;7263;49.418;11.064;2023-06-19T08:09:16;4.20;;;2.97;;
14358;SDS011;7263;49.418;11.064;2023-06-19T08:11:43;3.33;;;2.70;;
14358;SDS011;7263;49.418;11.064;2023-06-19T08:14:10;3.95;;;2.80;;
14358;SDS011;7263;49.418;11.064;2023-06-19T08:16:36;3.33;;;2.85;;
14358;SDS011;7263;49.418;11.064;2023-06-19T08:19:05;3.00;;;2.80;;
14358;SDS011;7263;49.418;11.064;2023-06-19T08:21:31;2.95;;;2.65;;
14358;SDS011;7263;49.418;11.064;2023-06-19T08:24:00;3.15;;;2.83;;
14358;SDS011;7263;49.418;11.064;2023-06-19T08:26:27;3.00;;;2.67;;
14358;SDS011;7263;49.418;11.064;2023-06-19T08:28:54;3.83;;;2.63;;
14358;SDS011;7263;49.418;11.064;2023-06-19T08:31:21;4.13;;;3.10;;
14358;SDS011;7263;49.418;11.064;2023-06-19T08:33:55;3.00;;;2.60;;
14358;SDS011;7263;49.418;11.064;2023-06-19T08:36:23;2.90;;;2.70;;
14358;SDS011;7263;49.418;11.064;2023-06-19T08:38:50;4.53;;;2.83;;
14358;SDS011;7263;49.418;11.064;2023-06-19T08:41:18;3.03;;;2.72;;
14358;SDS011;7263;49.418;11.064;2023-06-19T08:43:45;2.83;;;2.63;;
14358;SDS011;7263;49.418;11.064;2023-06-19T08:46:14;3.42;;;2.80;;
14358;SDS011;7263;49.418;11.064;2023-06-19T08:48:44;3.83;;;2.90;;
14358;SDS011;7263;49.418;11.064;2023-06-19T08:51:14;2.90;;;2.70;;
14358;SDS011;7263;49.418;11.064;2023-06-19T08:53:46;2.80;;;2.60;;
14358;SDS011;7263;49.418;11.064;2023-06-19T08:56:15;3.63;;;2.70;;
14358;SDS011;7263;49.418;11.064;2023-06-19T08:58:45;2.90;;;2.70;;
14358;SDS011;7263;49.418;11.064;2023-06-19T09:01:13;3.33;;;2.67;;
14358;SDS011;7263;49.418;11.064;2023-06-19T09:03:46;3.85;;;2.80;;
14358;SDS011;7263;49.418;11.064;2023-06-19T09:06:17;3.03;;;2.80;;
14358;SDS011;7263;49.418;11.064;2023-06-19T09:08:45;2.92;;;2.72;;
14358;SDS011;7263;49.418;11.064;2023-06-19T09:11:26;4.90;;;2.75;;
14358;SDS011;7263;49.418;11.064;2023-06-19T09:13:55;2.95;;;2.67;;
14358;SDS011;7263;49.418;11.064;2023-06-19T09:16:23;4.07;;;2.80;;
14358;SDS011;7263;49.418;11.064;2023-06-19T09:19:02;7.10;;;2.63;;
14358;SDS011;7263;49.418;11.064;2023-06-19T09:21:28;3.88;;;2.75;;
14358;SDS011;7263;49.418;11.064;2023-06-19T09:24:03;2.90;;;2.70;;
14358;SDS011;7263;49.418;11.064;2023-06-19T09:26:31;3.63;;;2.75;;
14358;SDS011;7263;49.418;11.064;2023-06-19T09:28:57;3.05;;;2.85;;
14358;SDS011;7263;49.418;11.064;2023-06-19T09:31:31;3.35;;;3.03;;
14358;SDS011;7263;49.418;11.064;2023-06-19T09:33:58;3.22;;;2.97;;
14358;SDS011;7263;49.418;11.064;2023-06-19T09:36:25;3.65;;;3.38;;
14358;SDS011;7263;49.418;11.064;2023-06-19T09:38:55;3.67;;;3.38;;
14358;SDS011;7263;49.418;11.064;2023-06-19T09:41:26;3.35;;;3.08;;
14358;SDS011;7263;49.418;11.064;2023-06-19T09:43:57;3.58;;;3.28;;
14358;SDS011;7263;49.418;11.064;2023-06-19T09:46:29;3.17;;;2.97;;
14358;SDS011;7263;49.418;11.064;2023-06-19T09:48:58;3.30;;;3.00;;
14358;SDS011;7263;49.418;11.064;2023-06-19T09:51:29;2.80;;;2.60;;
14358;SDS011;7263;49.418;11.064;2023-06-19T09:54:02;4.35;;;2.65;;
14358;SDS011;7263;49.418;11.064;2023-06-19T09:56:33;3.10;;;2.80;;
14358;SDS011;7263;49.418;11.064;2023-06-19T09:59:00;3.10;;;2.90;;
14358;SDS011;7263;49.418;11.064;2023-06-19T10:01:34;3.85;;;2.90;;
14358;SDS011;7263;49.418;11.064;2023-06-19T10:04:02;3.17;;;2.70;;
14358;SDS011;7263;49.418;11.064;2023-06-19T10:06:31;3.90;;;2.80;;
14358;SDS011;7263;49.418;11.064;2023-06-19T10:09:08;3.10;;;2.90;;
14358;SDS011;7263;49.418;11.064;2023-06-19T10:11:49;3.20;;;2.90;;
14358;SDS011;7263;49.418;11.064;2023-06-19T10:14:17;3.85;;;3.10;;
14358;SDS011;7263;49.418;11.064;2023-06-19T10:16:45;4.07;;;3.03;;
14358;SDS011;7263;49.418;11.064;2023-06-19T10:19:13;5.22;;;3.63;;
14358;SDS011;7263;49.418;11.064;2023-06-19T10:21:44;3.80;;;3.50;;
14358;SDS011;7263;49.418;11.064;2023-06-19T10:24:15;4.78;;;3.38;;
14358;SDS011;7263;49.418;11.064;2023-06-19T10:26:44;5.55;;;3.75;;
14358;SDS011;7263;49.418;11.064;2023-06-19T10:29:26;5.32;;;3.95;;
14358;SDS011;7263;49.418;11.064;2023-06-19T10:32:04;5.68;;;4.05;;
14358;SDS011;7263;49.418;11.064;2023-06-19T10:34:34;4.15;;;3.25;;
14358;SDS011;7263;49.418;11.064;2023-06-19T10:37:01;3.75;;;3.45;;
14358;SDS011;7263;49.418;11.064;2023-06-19T10:39:30;3.92;;;3.30;;
14358;SDS011;7263;49.418;11.064;2023-06-19T10:41:59;3.65;;;3.20;;
14358;SDS011;7263;49.418;11.064;2023-06-19T10:44:25;5.00;;;3.30;;
14358;SDS011;7263;49.418;11.064;2023-06-19T10:46:52;3.60;;;3.30;;
14358;SDS011;7263;49.418;11.064;2023-06-19T10:49:19;4.38;;;3.97;;
14358;SDS011;7263;49.418;11.064;2023-06-19T10:51:47;4.88;;;4.10;;
14358;SDS011;7263;49.418;11.064;2023-06-19T10:54:14;4.60;;;4.15;;
14358;SDS011;7263;49.418;11.064;2023-06-19T10:56:42;6.65;;;4.60;;
14358;SDS011;7263;49.418;11.064;2023-06-19T10:59:10;4.78;;;4.45;;
14358;SDS011;7263;49.418;11.064;2023-06-19T11:01:39;4.70;;;4.30;;
14358;SDS011;7263;49.418;11.064;2023-06-19T11:04:10;7.32;;;4.10;;
14358;SDS011;7263;49.418;11.064;2023-06-19T11:06:38;5.68;;;4.40;;
14358;SDS011;7263;49.418;11.064;2023-06-19T11:09:09;4.43;;;4.07;;
14358;SDS011;7263;49.418;11.064;2023-06-19T11:11:39;5.07;;;4.18;;
14358;SDS011;7263;49.418;11.064;2023-06-19T11:14:07;4.00;;;3.70;;
14358;SDS011;7263;49.418;11.064;2023-06-19T11:16:37;5.03;;;4.63;;
14358;SDS011;7263;49.418;11.064;2023-06-19T11:19:06;4.68;;;4.20;;
14358;SDS011;7263;49.418;11.064;2023-06-19T11:21:36;4.63;;;4.22;;
14358;SDS011;7263;49.418;11.064;2023-06-19T11:24:10;5.18;;;4.68;;
14358;SDS011;7263;49.418;11.064;2023-06-19T11:26:40;4.13;;;3.75;;
14358;SDS011;7263;49.418;11.064;2023-06-19T11:29:14;3.53;;;3.22;;
14358;SDS011;7263;49.418;11.064;2023-06-19T11:31:50;4.10;;;3.80;;
14358;SDS011;7263;49.418;11.064;2023-06-19T11:34:19;4.10;;;3.80;;
14358;SDS011;7263;49.418;11.064;2023-06-19T11:36:59;5.10;;;3.92;;
14358;SDS011;7263;49.418;11.064;2023-06-19T11:39:26;4.07;;;3.78;;
14358;SDS011;7263;49.418;11.064;2023-06-19T11:41:54;3.90;;;3.53;;
14358;SDS011;7263;49.418;11.064;2023-06-19T11:44:24;3.88;;;3.58;;
14358;SDS011;7263;49.418;11.064;2023-06-19T11:47:00;3.90;;;3.60;;
14358;SDS011;7263;49.418;11.064;2023-06-19T11:49:28;3.92;;;3.63;;
14358;SDS011;7263;49.418;11.064;2023-06-19T11:52:01;3.90;;;3.60;;
14358;SDS011;7263;49.418;11.064;2023-06-19T11:54:33;4.30;;;4.00;;
14358;SDS011;7263;49.418;11.064;2023-06-19T11:57:01;3.80;;;3.50;;
14358;SDS011;7263;49.418;11.064;2023-06-19T11:59:33;4.80;;;3.92;;
14358;SDS011;7263;49.418;11.064;2023-06-19T12:02:01;4.20;;;3.90;;
14358;SDS011;7263;49.418;11.064;2023-06-19T12:04:28;4.00;;;3.72;;
14358;SDS011;7263;49.418;11.064;2023-06-19T12:06:59;5.05;;;3.78;;
14358;SDS011;7263;49.418;11.064;2023-06-19T12:09:29;6.50;;;3.75;;
14358;SDS011;7263;49.418;11.064;2023-06-19T12:11:56;4.40;;;4.10;;
14358;SDS011;7263;49.418;11.064;2023-06-19T12:14:26;3.92;;;3.63;;
14358;SDS011;7263;49.418;11.064;2023-06-19T12:16:53;4.43;;;4.13;;
14358;SDS011;7263;49.418;11.064;2023-06-19T12:19:22;5.22;;;4.22;;
14358;SDS011;7263;49.418;11.064;2023-06-19T12:21:52;4.28;;;3.95;;
14358;SDS011;7263;49.418;11.064;2023-06-19T12:24:23;4.45;;;4.15;;
14358;SDS011;7263;49.418;11.064;2023-06-19T12:26:52;5.43;;;4.18;;
14358;SDS011;7263;49.418;11.064;2023-06-19T12:29:18;4.35;;;4.05;;
14358;SDS011;7263;49.418;11.064;2023-06-19T12:31:49;4.28;;;3.72;;
14358;SDS011;7263;49.418;11.064;2023-06-19T12:34:15;4.03;;;3.72;;
14358;SDS011;7263;49.418;11.064;2023-06-19T12:36:44;4.00;;;3.70;;
14358;SDS011;7263;49.418;11.064;2023-06-19T12:39:11;4.43;;;3.40;;
14358;SDS011;7263;49.418;11.064;2023-06-19T12:41:41;3.90;;;3.60;;
14358;SDS011;7263;49.418;11.064;2023-06-19T12:44:08;5.13;;;3.60;;
14358;SDS011;7263;49.418;11.064;2023-06-19T12:46:37;4.03;;;3.72;;
14358;SDS011;7263;49.418;11.064;2023-06-19T12:49:04;3.92;;;3.63;;
14358;SDS011;7263;49.418;11.064;2023-06-19T12:51:31;4.68;;;3.80;;
14358;SDS011;7263;49.418;11.064;2023-06-19T12:54:01;3.72;;;3.42;;
14358;SDS011;7263;49.418;11.064;2023-06-19T12:56:28;4.35;;;3.70;;
14358;SDS011;7263;49.418;11.064;2023-06-19T12:58:56;4.20;;;3.90;;
14358;SDS011;7263;49.418;11.064;2023-06-19T13:01:29;4.30;;;4.00;;
14358;SDS011;7263;49.418;11.064;2023-06-19T13:03:59;4.72;;;4.30;;
14358;SDS011;7263;49.418;11.064;2023-06-19T13:06:28;4.75;;;4.30;;
14358;SDS011;7263;49.418;11.064;2023-06-19T13:08:58;4.57;;;4.20;;
14358;SDS011;7263;49.418;11.064;2023-06-19T13:11:30;6.10;;;4.30;;
14358;SDS011;7263;49.418;11.064;2023-06-19T13:14:00;4.38;;;3.97;;
14358;SDS011;7263;49.418;11.064;2023-06-19T13:16:26;4.40;;;4.10;;
14358;SDS011;7263;49.418;11.064;2023-06-19T13:18:59;5.05;;;4.65;;
14358;SDS011;7263;49.418;11.064;2023-06-19T13:21:28;3.90;;;3.60;;
14358;SDS011;7263;49.418;11.064;2023-06-19T13:23:55;4.75;;;3.88;;
14358;SDS011;7263;49.418;11.064;2023-06-19T13:26:23;4.10;;;3.80;;
14358;SDS011;7263;49.418;11.064;2023-06-19T13:28:50;4.00;;;3.70;;
14358;SDS011;7263;49.418;11.064;2023-06-19T13:31:17;5.95;;;4.25;;
14358;SDS011;7263;49.418;11.064;2023-06-19T13:33:44;7.28;;;4.70;;
14358;SDS011;7263;49.418;11.064;2023-06-19T13:36:11;5.10;;;4.07;;
14358;SDS011;7263;49.418;11.064;2023-06-19T13:38:38;5.07;;;3.88;;
14358;SDS011;7263;49.418;11.064;2023-06-19T13:41:05;4.35;;;3.60;;
14358;SDS011;7263;49.418;11.064;2023-06-19T13:43:36;4.63;;;3.88;;
14358;SDS011;7263;49.418;11.064;2023-06-19T13:46:05;4.70;;;3.60;;
14358;SDS011;7263;49.418;11.064;2023-06-19T13:48:37;4.07;;;3.78;;
14358;SDS011;7263;49.418;11.064;2023-06-19T13:51:03;4.15;;;3.85;;
14358;SDS011;7263;49.418;11.064;2023-06-19T13:53:30;4.13;;;3.83;;
14358;SDS011;7263;49.418;11.064;2023-06-19T13:55:58;3.72;;;3.42;;
14358;SDS011;7263;49.418;11.064;2023-06-19T13:58:25;3.83;;;3.53;;
14358;SDS011;7263;49.418;11.064;2023-06-19T14:00:55;3.70;;;3.38;;
14358;SDS011;7263;49.418;11.064;2023-06-19T14:03:22;3.97;;;3.58;;
14358;SDS011;7263;49.418;11.064;2023-06-19T14:05:49;3.78;;;3.47;;
14358;SDS011;7263;49.418;11.064;2023-06-19T14:08:17;4.70;;;3.13;;
14358;SDS011;7263;49.418;11.064;2023-06-19T14:10:46;3.30;;;3.10;;
14358;SDS011;7263;49.418;11.064;2023-06-19T14:13:12;3.42;;;3.13;;
14358;SDS011;7263;49.418;11.064;2023-06-19T14:15:41;5.68;;;3.70;;
14358;SDS011;7263;49.418;11.064;2023-06-19T14:18:12;3.78;;;3.22;;
14358;SDS011;7263;49.418;11.064;2023-06-19T14:20:39;3.67;;;3.38;;
14358;SDS011;7263;49.418;11.064;2023-06-19T14:23:06;3.78;;;3.55;;
14358;SDS011;7263;49.418;11.064;2023-06-19T14:25:36;4.07;;;3.25;;
14358;SDS011;7263;49.418;11.064;2023-06-19T14:28:03;3.45;;;3.15;;
14358;SDS011;7263;49.418;11.064;2023-06-19T14:30:30;3.25;;;2.95;;
14358;SDS011;7263;49.418;11.064;2023-06-19T14:32:57;3.67;;;2.90;;
14358;SDS011;7263;49.418;11.064;2023-06-19T14:35:25;3.38;;;3.10;;
14358;SDS011;7263;49.418;11.064;2023-06-19T14:37:55;3.20;;;2.90;;
14358;SDS011;7263;49.418;11.064;2023-06-19T14:40:22;3.50;;;2.90;;
14358;SDS011;7263;49.418;11.064;2023-06-19T14:42:49;3.90;;;2.80;;
14358;SDS011;7263;49.418;11.064;2023-06-19T14:45:15;3.25;;;3.00;;
14358;SDS011;7263;49.418;11.064;2023-06-19T14:47:42;3.17;;;2.97;;
14358;SDS011;7263;49.418;11.064;2023-06-19T14:50:09;3.10;;;2.90;;
14358;SDS011;7263;49.418;11.064;2023-06-19T14:52:37;5.00;;;3.38;;
14358;SDS011;7263;49.418;11.064;2023-06-19T14:55:04;3.58;;;3.28;;
14358;SDS011;7263;49.418;11.064;2023-06-19T14:57:35;3.45;;;3.15;;